Time;durP1;ratioP1;P1;durP2;ratioP2;P2;SDS_P1;SDS_P2;PMS_P1;PMS_P2;Temp;Humidity;BMP_temperature;BMP_pressure;BME280_temperature;BME280_humidity;BME280_pressure;Samples;Min_cycle;Max_cycle;Signal;HPM_P1;HPM_P2
2023/03/03 00:01:36;;;;;;;;;59.25;47.25;;;;;;;;5087324;27;45312;-73
2023/03/03 00:04:01;;;;;;;;;63.75;50.25;;;;;;;;5078399;27;45507;-73
2023/03/03 00:06:28;;;;;;;;;55.75;45.00;;;;;;;;5091064;27;45392;-72
2023/03/03 00:08:54;;;;;;;;;60.00;46.25;;;;;;;;5083238;27;45458;-72
2023/03/03 00:11:19;;;;;;;;;64.25;45.50;;;;;;;;5083836;27;45349;-71
2023/03/03 00:13:54;;;;;;;;;61.75;48.25;;;;;;;;5089800;27;45534;-72
2023/03/03 00:16:24;;;;;;;;;61.75;48.00;;;;;;;;5078270;27;45323;-72
2023/03/03 00:18:49;;;;;;;;;61.50;52.25;;;;;;;;5089028;27;45412;-72
2023/03/03 00:21:28;;;;;;;;;59.75;47.50;;;;;;;;5084544;27;45607;-72
2023/03/03 00:23:54;;;;;;;;;57.00;47.00;;;;;;;;5078552;27;45337;-71
2023/03/03 00:26:25;;;;;;;;;62.75;48.75;;;;;;;;5089768;27;45538;-73
2023/03/03 00:28:51;;;;;;;;;58.00;48.00;;;;;;;;5082190;27;45613;-72
2023/03/03 00:31:18;;;;;;;;;58.25;47.25;;;;;;;;5082876;27;45581;-72
2023/03/03 00:33:54;;;;;;;;;61.75;49.00;;;;;;;;5088759;27;45488;-71
2023/03/03 00:36:30;;;;;;;;;68.00;51.75;;;;;;;;5080436;27;45378;-72
2023/03/03 00:38:58;;;;;;;;;54.25;43.00;;;;;;;;5090575;27;45358;-72
2023/03/03 00:41:27;;;;;;;;;61.25;50.25;;;;;;;;5090087;27;45368;-72
2023/03/03 00:43:52;;;;;;;;;64.00;46.75;;;;;;;;5081772;27;46082;-72
2023/03/03 00:46:21;;;;;;;;;47.25;39.50;;;;;;;;5094170;27;45290;-72
2023/03/03 00:48:47;;;;;;;;;62.25;48.25;;;;;;;;5084604;27;45368;-72
2023/03/03 00:51:18;;;;;;;;;55.00;43.50;;;;;;;;5087180;27;45334;-72
2023/03/03 00:53:44;;;;;;;;;57.25;44.75;;;;;;;;5090446;27;47230;-73
2023/03/03 00:56:09;;;;;;;;;58.25;47.25;;;;;;;;5081253;27;45456;-71
2023/03/03 00:58:34;;;;;;;;;58.00;46.75;;;;;;;;5087218;27;45439;-73
2023/03/03 01:01:00;;;;;;;;;57.75;46.75;;;;;;;;5069921;27;45788;-73
2023/03/03 01:03:26;;;;;;;;;58.50;48.25;;;;;;;;5089047;27;46311;-73
2023/03/03 01:05:52;;;;;;;;;58.75;46.25;;;;;;;;5077976;27;45433;-72
2023/03/03 01:08:18;;;;;;;;;60.50;49.25;;;;;;;;5093378;27;45488;-73
2023/03/03 01:10:59;;;;;;;;;57.25;48.00;;;;;;;;5084538;27;45487;-72
2023/03/03 01:13:26;;;;;;;;;64.00;49.75;;;;;;;;5096277;27;45423;-73
2023/03/03 01:15:51;;;;;;;;;53.00;46.25;;;;;;;;5081776;27;45443;-72
2023/03/03 01:18:17;;;;;;;;;56.25;48.50;;;;;;;;5094300;27;45626;-72
2023/03/03 01:20:42;;;;;;;;;61.00;50.25;;;;;;;;5083994;27;45534;-72
2023/03/03 01:23:07;;;;;;;;;55.50;46.50;;;;;;;;5087708;27;46205;-71
2023/03/03 01:25:33;;;;;;;;;53.25;44.75;;;;;;;;5088715;27;45431;-72
2023/03/03 01:27:58;;;;;;;;;55.00;47.50;;;;;;;;5080738;27;45355;-73
2023/03/03 01:30:24;;;;;;;;;51.50;44.75;;;;;;;;5094181;27;45706;-72
2023/03/03 01:32:49;;;;;;;;;61.50;48.75;;;;;;;;5084020;27;46242;-72
2023/03/03 01:35:15;;;;;;;;;60.50;47.75;;;;;;;;5086622;27;45381;-72
2023/03/03 01:37:40;;;;;;;;;50.50;43.00;;;;;;;;5091219;27;45290;-72
2023/03/03 01:40:11;;;;;;;;;56.75;47.25;;;;;;;;5080698;27;45228;-72
2023/03/03 01:42:36;;;;;;;;;62.00;49.25;;;;;;;;5090086;27;45361;-73
2023/03/03 01:45:27;;;;;;;;;60.75;49.50;;;;;;;;5088121;27;45406;-72
2023/03/03 01:48:02;;;;;;;;;58.00;45.75;;;;;;;;5080961;27;45370;-73
2023/03/03 01:50:31;;;;;;;;;62.00;50.25;;;;;;;;5064644;27;45329;-73
2023/03/03 01:52:58;;;;;;;;;62.75;49.00;;;;;;;;5088684;27;45757;-72
2023/03/03 01:55:28;;;;;;;;;61.25;49.00;;;;;;;;5088287;27;45419;-72
2023/03/03 01:58:19;;;;;;;;;71.00;53.75;;;;;;;;5080756;27;45381;-72
2023/03/03 02:00:49;;;;;;;;;66.25;51.50;;;;;;;;5028804;28;45446;-72
2023/03/03 02:03:14;;;;;;;;;63.75;49.75;;;;;;;;5017171;28;47514;-72
2023/03/03 02:05:40;;;;;;;;;64.00;50.00;;;;;;;;5033817;28;45360;-72
2023/03/03 02:08:06;;;;;;;;;60.00;50.50;;;;;;;;5034048;28;45537;-72
2023/03/03 02:10:32;;;;;;;;;56.25;45.50;;;;;;;;5034237;28;45574;-72
2023/03/03 02:12:58;;;;;;;;;61.00;47.50;;;;;;;;5024278;28;45772;-73
2023/03/03 02:15:25;;;;;;;;;62.50;52.25;;;;;;;;5014099;28;45376;-74
2023/03/03 02:17:55;;;;;;;;;60.25;48.00;;;;;;;;5014218;28;45366;-73
2023/03/03 02:20:20;;;;;;;;;60.75;46.00;;;;;;;;5014434;28;45400;-73
2023/03/03 02:23:05;;;;;;;;;60.25;49.00;;;;;;;;5014506;28;46042;-72
2023/03/03 02:25:33;;;;;;;;;56.75;47.25;;;;;;;;5014179;28;45416;-72
2023/03/03 02:27:59;;;;;;;;;56.00;46.75;;;;;;;;5015559;28;45392;-72
2023/03/03 02:30:24;;;;;;;;;61.25;46.00;;;;;;;;5034057;28;45452;-72
2023/03/03 02:32:49;;;;;;;;;58.25;47.75;;;;;;;;5034281;28;45265;-72
2023/03/03 02:35:29;;;;;;;;;67.75;50.50;;;;;;;;5034073;28;45540;-72
2023/03/03 02:38:01;;;;;;;;;57.75;47.25;;;;;;;;5048434;28;45450;-72
2023/03/03 02:40:30;;;;;;;;;61.25;47.75;;;;;;;;5056313;28;45565;-72
2023/03/03 02:42:57;;;;;;;;;59.00;44.00;;;;;;;;5056432;28;47226;-73
2023/03/03 02:45:22;;;;;;;;;57.00;48.50;;;;;;;;5055105;28;45405;-72
2023/03/03 02:47:48;;;;;;;;;59.75;48.75;;;;;;;;5056283;28;45938;-73
2023/03/03 02:50:14;;;;;;;;;62.50;49.50;;;;;;;;5056153;28;45417;-72
2023/03/03 02:52:39;;;;;;;;;59.25;50.00;;;;;;;;5055992;28;46103;-72
2023/03/03 02:55:04;;;;;;;;;54.50;46.00;;;;;;;;5055737;28;45613;-73
2023/03/03 02:57:30;;;;;;;;;66.25;50.50;;;;;;;;5055358;28;45278;-73
2023/03/03 02:59:55;;;;;;;;;61.50;50.25;;;;;;;;5056124;28;45579;-73
2023/03/03 03:02:20;;;;;;;;;58.00;47.25;;;;;;;;5063683;28;45569;-73
2023/03/03 03:04:46;;;;;;;;;60.00;49.25;;;;;;;;5070880;27;45370;-73
2023/03/03 03:07:11;;;;;;;;;59.50;48.25;;;;;;;;5074632;28;45370;-73
2023/03/03 03:09:36;;;;;;;;;61.50;49.50;;;;;;;;5075160;28;45260;-73
2023/03/03 03:12:01;;;;;;;;;56.75;47.25;;;;;;;;5075430;28;45293;-73
2023/03/03 03:14:27;;;;;;;;;59.00;48.25;;;;;;;;5074194;28;46278;-72
2023/03/03 03:16:52;;;;;;;;;60.50;45.25;;;;;;;;5074898;28;45434;-73
2023/03/03 03:19:17;;;;;;;;;63.00;51.25;;;;;;;;5074573;28;45439;-73
2023/03/03 03:21:42;;;;;;;;;62.25;49.50;;;;;;;;5075863;28;46411;-73
2023/03/03 03:24:08;;;;;;;;;58.25;46.50;;;;;;;;5075525;28;45400;-72
2023/03/03 03:26:33;;;;;;;;;52.75;43.25;;;;;;;;5075748;27;45322;-72
2023/03/03 03:28:58;;;;;;;;;64.25;44.50;;;;;;;;5075947;28;45341;-73
2023/03/03 03:31:23;;;;;;;;;61.00;48.50;;;;;;;;5075756;28;47111;-73
2023/03/03 03:33:49;;;;;;;;;52.75;44.75;;;;;;;;5075695;28;45372;-73
2023/03/03 03:36:14;;;;;;;;;62.75;50.50;;;;;;;;5074985;28;45523;-72
2023/03/03 03:38:39;;;;;;;;;64.25;50.75;;;;;;;;5075427;28;45381;-71
2023/03/03 03:41:06;;;;;;;;;60.50;49.00;;;;;;;;5074893;28;46347;-72
2023/03/03 03:43:32;;;;;;;;;64.75;47.00;;;;;;;;5076104;27;45403;-72
2023/03/03 03:45:57;;;;;;;;;64.75;49.75;;;;;;;;5076533;27;45410;-72
2023/03/03 03:48:22;;;;;;;;;56.25;46.50;;;;;;;;5076626;28;45458;-71
2023/03/03 03:50:48;;;;;;;;;56.00;45.25;;;;;;;;5075850;28;45428;-72
2023/03/03 03:53:14;;;;;;;;;60.25;47.75;;;;;;;;5074722;27;45412;-72
2023/03/03 03:55:39;;;;;;;;;58.00;47.25;;;;;;;;5074078;28;45449;-72
2023/03/03 03:58:04;;;;;;;;;61.50;49.75;;;;;;;;5075753;28;45528;-72
2023/03/03 04:00:30;;;;;;;;;65.75;49.25;;;;;;;;5075184;28;45410;-72
2023/03/03 04:02:55;;;;;;;;;63.00;51.75;;;;;;;;5075218;27;45251;-72
2023/03/03 04:05:20;;;;;;;;;62.75;50.50;;;;;;;;5075314;27;45425;-72
2023/03/03 04:07:46;;;;;;;;;54.75;45.25;;;;;;;;5074947;27;45310;-72
2023/03/03 04:10:11;;;;;;;;;65.25;50.50;;;;;;;;5074980;28;45976;-72
2023/03/03 04:12:39;;;;;;;;;59.50;49.25;;;;;;;;5074858;28;45246;-72
2023/03/03 04:15:08;;;;;;;;;62.25;48.50;;;;;;;;5075109;27;45278;-72
2023/03/03 04:17:33;;;;;;;;;59.75;46.75;;;;;;;;5074016;28;45607;-72
2023/03/03 04:19:58;;;;;;;;;59.25;49.50;;;;;;;;5075307;27;46082;-72
2023/03/03 04:22:24;;;;;;;;;59.00;50.50;;;;;;;;5074825;28;45631;-72
2023/03/03 04:24:49;;;;;;;;;62.50;50.75;;;;;;;;5075471;28;45427;-72
2023/03/03 04:27:14;;;;;;;;;61.25;50.50;;;;;;;;5074938;28;45298;-72
2023/03/03 04:29:40;;;;;;;;;64.25;47.75;;;;;;;;5073321;28;45375;-72
2023/03/03 04:32:05;;;;;;;;;61.25;47.25;;;;;;;;5074988;28;45316;-72
2023/03/03 04:34:30;;;;;;;;;60.00;50.00;;;;;;;;5075019;28;45316;-72
2023/03/03 04:36:56;;;;;;;;;66.25;49.75;;;;;;;;5075119;28;45339;-72
2023/03/03 04:39:21;;;;;;;;;63.75;50.50;;;;;;;;5074828;28;45329;-72
2023/03/03 04:41:46;;;;;;;;;60.00;50.50;;;;;;;;5074972;28;45448;-72
2023/03/03 04:44:11;;;;;;;;;60.25;48.00;;;;;;;;5075003;28;45347;-72
2023/03/03 04:46:36;;;;;;;;;62.25;49.25;;;;;;;;5073232;28;45356;-72
2023/03/03 04:49:03;;;;;;;;;52.75;45.75;;;;;;;;5074308;28;45921;-72
2023/03/03 04:51:28;;;;;;;;;55.75;47.75;;;;;;;;5073197;27;45469;-72
2023/03/03 04:53:53;;;;;;;;;66.75;52.00;;;;;;;;5072311;28;46324;-72
2023/03/03 04:56:19;;;;;;;;;61.75;48.75;;;;;;;;5074472;28;45450;-72
2023/03/03 04:58:44;;;;;;;;;60.50;48.75;;;;;;;;5074600;28;46128;-72
2023/03/03 05:01:11;;;;;;;;;59.00;46.75;;;;;;;;5074298;28;45622;-72
2023/03/03 05:03:37;;;;;;;;;59.75;49.75;;;;;;;;5074531;28;45421;-72
2023/03/03 05:06:02;;;;;;;;;59.75;48.50;;;;;;;;5074541;28;45417;-72
2023/03/03 05:08:27;;;;;;;;;62.00;49.00;;;;;;;;5074395;28;45639;-72
2023/03/03 05:10:53;;;;;;;;;55.50;44.00;;;;;;;;5074773;28;45361;-72
2023/03/03 05:13:18;;;;;;;;;61.00;48.25;;;;;;;;5074583;28;45622;-72
2023/03/03 05:15:48;;;;;;;;;63.25;50.75;;;;;;;;5074218;28;45364;-72
2023/03/03 05:18:13;;;;;;;;;61.50;49.75;;;;;;;;5074040;28;45644;-72
2023/03/03 05:20:39;;;;;;;;;57.00;48.00;;;;;;;;5074452;28;45504;-72
2023/03/03 05:23:04;;;;;;;;;62.75;49.75;;;;;;;;5078155;28;45674;-72
2023/03/03 05:25:29;;;;;;;;;63.50;49.25;;;;;;;;5077740;28;45376;-72
2023/03/03 05:27:55;;;;;;;;;66.75;51.50;;;;;;;;5077530;28;46179;-72
2023/03/03 05:30:20;;;;;;;;;56.75;47.50;;;;;;;;5077982;27;45345;-72
2023/03/03 05:32:45;;;;;;;;;61.00;50.50;;;;;;;;5077780;28;45385;-72
2023/03/03 05:35:11;;;;;;;;;66.25;53.00;;;;;;;;5077427;28;45464;-72
2023/03/03 05:37:36;;;;;;;;;59.00;46.75;;;;;;;;5078548;28;45286;-72
2023/03/03 05:40:01;;;;;;;;;67.50;51.50;;;;;;;;5078044;27;45341;-72
2023/03/03 05:42:26;;;;;;;;;62.50;49.75;;;;;;;;5077986;28;45365;-72
2023/03/03 05:44:52;;;;;;;;;67.50;52.00;;;;;;;;5077942;28;45305;-72
2023/03/03 05:47:17;;;;;;;;;66.25;53.00;;;;;;;;5077468;28;45408;-72
2023/03/03 05:49:42;;;;;;;;;61.75;48.75;;;;;;;;5077648;28;45328;-72
2023/03/03 05:52:07;;;;;;;;;56.25;45.50;;;;;;;;5078005;28;45369;-72
2023/03/03 05:54:33;;;;;;;;;64.75;52.00;;;;;;;;5076340;28;45494;-73
2023/03/03 05:56:58;;;;;;;;;64.50;50.25;;;;;;;;5077435;28;45366;-72
2023/03/03 05:59:23;;;;;;;;;63.00;49.75;;;;;;;;5077565;28;45420;-72
2023/03/03 06:01:49;;;;;;;;;62.00;49.50;;;;;;;;5077681;28;46000;-72
2023/03/03 06:04:14;;;;;;;;;60.25;49.75;;;;;;;;5075674;28;45490;-72
2023/03/03 06:06:39;;;;;;;;;61.75;51.25;;;;;;;;5077255;28;46984;-73
2023/03/03 06:09:05;;;;;;;;;65.50;51.00;;;;;;;;5077187;28;45299;-72
2023/03/03 06:11:30;;;;;;;;;62.50;50.50;;;;;;;;5077560;28;45321;-73
2023/03/03 06:13:55;;;;;;;;;67.75;53.00;;;;;;;;5076987;28;45342;-72
2023/03/03 06:16:20;;;;;;;;;62.50;51.00;;;;;;;;5076816;28;45474;-72
2023/03/03 06:18:46;;;;;;;;;63.25;51.50;;;;;;;;5077014;28;45304;-75
2023/03/03 06:21:11;;;;;;;;;70.25;53.25;;;;;;;;5077121;28;45252;-76
2023/03/03 06:23:36;;;;;;;;;69.00;53.00;;;;;;;;5075942;28;45376;-75
2023/03/03 06:26:01;;;;;;;;;68.25;52.50;;;;;;;;5076459;28;45580;-76
2023/03/03 06:28:27;;;;;;;;;67.00;53.25;;;;;;;;5077051;27;45320;-75
2023/03/03 06:30:53;;;;;;;;;58.75;49.50;;;;;;;;5077137;28;45753;-73
2023/03/03 06:33:18;;;;;;;;;67.50;53.75;;;;;;;;5073557;28;45651;-73
2023/03/03 06:35:44;;;;;;;;;63.50;51.00;;;;;;;;5076473;28;46306;-73
2023/03/03 06:38:09;;;;;;;;;61.00;50.25;;;;;;;;5058202;28;45927;-73
2023/03/03 06:40:34;;;;;;;;;62.50;51.75;;;;;;;;5076784;28;45292;-73
2023/03/03 06:43:02;;;;;;;;;65.50;54.00;;;;;;;;5075512;28;45280;-73
2023/03/03 06:45:27;;;;;;;;;62.25;50.25;;;;;;;;5076466;27;47274;-73
2023/03/03 06:47:52;;;;;;;;;61.25;50.25;;;;;;;;5075689;28;45392;-73
2023/03/03 06:50:19;;;;;;;;;66.75;53.00;;;;;;;;5074259;28;45377;-73
2023/03/03 06:52:44;;;;;;;;;60.50;48.75;;;;;;;;5058229;28;45476;-72
2023/03/03 06:55:11;;;;;;;;;61.25;48.50;;;;;;;;5055179;28;46242;-73
2023/03/03 06:57:36;;;;;;;;;68.00;54.50;;;;;;;;5055054;28;45448;-73
2023/03/03 07:00:22;;;;;;;;;70.00;54.25;;;;;;;;5068861;28;45281;-72
2023/03/03 07:02:52;;;;;;;;;65.50;53.00;;;;;;;;5074275;28;45548;-73
2023/03/03 07:05:17;;;;;;;;;65.00;52.75;;;;;;;;5074932;28;47425;-73
2023/03/03 07:07:43;;;;;;;;;61.50;51.25;;;;;;;;5076968;28;45384;-73
2023/03/03 07:10:16;;;;;;;;;72.25;55.50;;;;;;;;5072094;28;45470;-75
2023/03/03 07:12:42;;;;;;;;;70.00;55.75;;;;;;;;5069625;27;45282;-74
2023/03/03 07:15:20;;;;;;;;;66.50;52.50;;;;;;;;5074914;28;46648;-74
2023/03/03 07:17:47;;;;;;;;;65.50;54.00;;;;;;;;5076508;28;45379;-73
2023/03/03 07:20:23;;;;;;;;;64.75;52.50;;;;;;;;5068408;28;45673;-73
2023/03/03 07:22:48;;;;;;;;;71.25;54.25;;;;;;;;5060598;28;45480;-73
2023/03/03 07:25:36;;;;;;;;;69.00;54.00;;;;;;;;5054070;28;45452;-73
2023/03/03 07:28:21;;;;;;;;;66.50;52.00;;;;;;;;5054524;28;45405;-73
2023/03/03 07:30:46;;;;;;;;;72.00;55.75;;;;;;;;5053729;28;45366;-72
2023/03/03 07:33:23;;;;;;;;;71.00;53.50;;;;;;;;5053807;28;45527;-72
2023/03/03 07:35:48;;;;;;;;;70.50;55.00;;;;;;;;5072507;28;47195;-72
2023/03/03 07:38:26;;;;;;;;;70.25;55.25;;;;;;;;5074280;27;45393;-73
2023/03/03 07:40:52;;;;;;;;;63.75;53.25;;;;;;;;5073167;28;45827;-73
2023/03/03 07:43:27;;;;;;;;;70.75;54.75;;;;;;;;5073852;28;45516;-73
2023/03/03 07:45:54;;;;;;;;;71.50;56.50;;;;;;;;5073193;27;45383;-73
2023/03/03 07:48:31;;;;;;;;;72.00;57.75;;;;;;;;5074523;28;45399;-73
2023/03/03 07:51:00;;;;;;;;;71.00;55.50;;;;;;;;5074872;28;45801;-72
2023/03/03 07:53:27;;;;;;;;;75.50;56.50;;;;;;;;5075232;28;45346;-73
2023/03/03 07:55:53;;;;;;;;;72.75;55.25;;;;;;;;5074716;27;46347;-72
2023/03/03 07:58:18;;;;;;;;;68.25;55.25;;;;;;;;5074504;27;45343;-72
2023/03/03 08:01:02;;;;;;;;;67.50;55.25;;;;;;;;5074479;27;45445;-73
2023/03/03 08:03:27;;;;;;;;;72.50;59.00;;;;;;;;5071400;28;45509;-73
2023/03/03 08:05:52;;;;;;;;;69.50;56.00;;;;;;;;5070282;27;46420;-73
2023/03/03 08:08:28;;;;;;;;;71.75;58.00;;;;;;;;5073637;27;45600;-73
2023/03/03 08:10:54;;;;;;;;;72.75;56.00;;;;;;;;5074582;28;45494;-73
2023/03/03 08:13:20;;;;;;;;;75.25;57.50;;;;;;;;5071828;28;45422;-73
2023/03/03 08:15:54;;;;;;;;;71.75;58.00;;;;;;;;5074249;27;45605;-73
2023/03/03 08:18:23;;;;;;;;;70.00;55.50;;;;;;;;5072255;28;45270;-73
2023/03/03 08:20:51;;;;;;;;;76.00;55.75;;;;;;;;5075249;27;45748;-73
2023/03/03 08:23:17;;;;;;;;;73.75;57.75;;;;;;;;5074912;28;45516;-73
2023/03/03 08:25:42;;;;;;;;;72.00;57.00;;;;;;;;5074607;28;45474;-73
2023/03/03 08:28:09;;;;;;;;;75.50;60.50;;;;;;;;5074934;27;45447;-73
2023/03/03 08:30:34;;;;;;;;;70.25;56.00;;;;;;;;5074811;28;45502;-73
2023/03/03 08:33:00;;;;;;;;;75.50;58.75;;;;;;;;5074830;28;45501;-72
2023/03/03 08:35:25;;;;;;;;;76.50;60.75;;;;;;;;5074726;28;45968;-72
2023/03/03 08:37:50;;;;;;;;;75.50;58.25;;;;;;;;5074897;28;45381;-72
2023/03/03 08:40:15;;;;;;;;;76.00;59.00;;;;;;;;5074804;27;45369;-72
2023/03/03 08:42:41;;;;;;;;;78.00;59.00;;;;;;;;5074518;27;45297;-72
2023/03/03 08:45:06;;;;;;;;;77.50;60.75;;;;;;;;5074658;28;46039;-72
2023/03/03 08:47:32;;;;;;;;;76.00;57.00;;;;;;;;5074611;27;45385;-73
2023/03/03 08:49:57;;;;;;;;;73.50;58.00;;;;;;;;5074578;28;45408;-73
2023/03/03 08:52:23;;;;;;;;;67.50;54.00;;;;;;;;5074269;28;45430;-72
2023/03/03 08:54:48;;;;;;;;;68.50;55.75;;;;;;;;5074438;28;45345;-72
2023/03/03 08:57:13;;;;;;;;;75.25;57.50;;;;;;;;5075518;28;45338;-72
2023/03/03 08:59:38;;;;;;;;;79.00;59.25;;;;;;;;5076040;27;45388;-73
2023/03/03 09:02:04;;;;;;;;;71.25;55.50;;;;;;;;5077713;27;45614;-73
2023/03/03 09:04:29;;;;;;;;;68.25;54.75;;;;;;;;5076922;28;46222;-75
2023/03/03 09:06:55;;;;;;;;;61.75;50.50;;;;;;;;5077925;27;45642;-73
2023/03/03 09:09:20;;;;;;;;;74.50;56.50;;;;;;;;5077590;28;45376;-74
2023/03/03 09:11:46;;;;;;;;;63.25;52.25;;;;;;;;5077516;28;45324;-74
2023/03/03 09:14:12;;;;;;;;;66.50;53.50;;;;;;;;5077542;28;45352;-75
2023/03/03 09:16:39;;;;;;;;;71.00;54.25;;;;;;;;5077123;27;45370;-74
2023/03/03 09:19:23;;;;;;;;;62.50;49.50;;;;;;;;5075993;28;45415;-74
2023/03/03 09:21:50;;;;;;;;;60.00;50.25;;;;;;;;5076224;28;45399;-74
2023/03/03 09:24:21;;;;;;;;;64.75;52.25;;;;;;;;5076082;28;46328;-73
2023/03/03 09:26:46;;;;;;;;;63.25;49.25;;;;;;;;5077722;28;45503;-75
2023/03/03 09:29:14;;;;;;;;;65.50;53.00;;;;;;;;5077960;27;45516;-75
2023/03/03 09:31:53;;;;;;;;;68.25;54.00;;;;;;;;5077298;28;45603;-75
2023/03/03 09:34:22;;;;;;;;;63.50;51.75;;;;;;;;5077087;28;45534;-75
2023/03/03 09:36:48;;;;;;;;;64.25;50.75;;;;;;;;5077547;28;45473;-75
2023/03/03 09:39:18;;;;;;;;;63.00;51.50;;;;;;;;5076215;28;45508;-75
2023/03/03 09:41:52;;;;;;;;;61.75;49.00;;;;;;;;5075020;28;45322;-74
2023/03/03 09:44:20;;;;;;;;;55.50;45.75;;;;;;;;5077214;27;45409;-73
2023/03/03 09:46:46;;;;;;;;;57.50;48.00;;;;;;;;5075729;27;45449;-75
2023/03/03 09:49:20;;;;;;;;;62.50;48.75;;;;;;;;5077121;28;45476;-74
2023/03/03 09:51:51;;;;;;;;;57.75;47.50;;;;;;;;5075199;28;45442;-74
2023/03/03 09:54:30;;;;;;;;;56.25;46.00;;;;;;;;5077012;27;46288;-74
2023/03/03 09:57:02;;;;;;;;;55.50;46.50;;;;;;;;5076928;27;45360;-73
2023/03/03 09:59:31;;;;;;;;;58.00;46.50;;;;;;;;5076916;27;45311;-74
2023/03/03 10:02:07;;;;;;;;;56.50;44.50;;;;;;;;5077185;28;45612;-74
2023/03/03 10:04:47;;;;;;;;;58.75;45.75;;;;;;;;5076672;28;45251;-74
2023/03/03 10:07:31;;;;;;;;;54.00;44.50;;;;;;;;5075719;28;45601;-74
2023/03/03 10:10:03;;;;;;;;;55.50;43.50;;;;;;;;5074813;28;45373;-74
2023/03/03 10:12:28;;;;;;;;;51.00;42.75;;;;;;;;5076631;28;45286;-74
2023/03/03 10:14:56;;;;;;;;;50.25;40.75;;;;;;;;5076638;28;46599;-74
2023/03/03 10:17:25;;;;;;;;;47.75;41.00;;;;;;;;5074047;28;45540;-74
2023/03/03 10:20:09;;;;;;;;;50.75;40.25;;;;;;;;5076814;27;45507;-74
2023/03/03 10:22:37;;;;;;;;;48.00;40.00;;;;;;;;5074630;28;45456;-74
2023/03/03 10:25:14;;;;;;;;;50.25;43.00;;;;;;;;5074012;28;45394;-73
2023/03/03 10:27:45;;;;;;;;;50.00;41.75;;;;;;;;5077175;28;45293;-73
2023/03/03 10:30:11;;;;;;;;;51.25;40.25;;;;;;;;5076846;28;45345;-73
2023/03/03 10:32:48;;;;;;;;;51.25;42.25;;;;;;;;5077038;28;45413;-73
2023/03/03 10:35:25;;;;;;;;;51.25;43.50;;;;;;;;5068436;27;46287;-73
2023/03/03 10:38:03;;;;;;;;;47.50;39.50;;;;;;;;5090938;27;45381;-71
2023/03/03 10:40:31;;;;;;;;;49.00;42.25;;;;;;;;5093462;27;45770;-73
2023/03/03 10:43:15;;;;;;;;;50.50;41.50;;;;;;;;5081923;27;45348;-73
2023/03/03 10:45:43;;;;;;;;;49.75;40.00;;;;;;;;5085003;27;46576;-74
2023/03/03 10:48:09;;;;;;;;;48.50;40.75;;;;;;;;5094209;27;45306;-74
2023/03/03 10:50:37;;;;;;;;;48.00;39.25;;;;;;;;5081402;27;45485;-74
2023/03/03 10:53:11;;;;;;;;;46.75;37.50;;;;;;;;5089863;27;45357;-74
2023/03/03 10:55:39;;;;;;;;;44.75;38.50;;;;;;;;5087779;27;45523;-74
2023/03/03 10:58:05;;;;;;;;;46.50;38.50;;;;;;;;5080135;27;45684;-72
2023/03/03 11:00:50;;;;;;;;;48.50;38.50;;;;;;;;5079119;27;45361;-73
2023/03/03 11:03:18;;;;;;;;;44.50;37.25;;;;;;;;5075949;27;45445;-74
2023/03/03 11:05:44;;;;;;;;;45.50;39.25;;;;;;;;5077476;27;46499;-73
2023/03/03 11:08:21;;;;;;;;;49.00;39.50;;;;;;;;5077679;27;45451;-74
2023/03/03 11:10:49;;;;;;;;;42.75;36.75;;;;;;;;5078658;27;45436;-74
2023/03/03 11:13:17;;;;;;;;;46.50;39.75;;;;;;;;5075367;27;45444;-73
2023/03/03 11:15:42;;;;;;;;;45.25;39.25;;;;;;;;5077411;27;45395;-74
2023/03/03 11:18:13;;;;;;;;;47.75;36.25;;;;;;;;5092238;27;45348;-75
2023/03/03 11:20:39;;;;;;;;;42.50;35.75;;;;;;;;5063601;27;45444;-74
2023/03/03 11:23:14;;;;;;;;;42.50;36.50;;;;;;;;5088177;27;45310;-74
2023/03/03 11:25:52;;;;;;;;;48.75;36.50;;;;;;;;5088135;27;46428;-73
2023/03/03 11:28:20;;;;;;;;;39.75;32.75;;;;;;;;5079164;27;45302;-74
2023/03/03 11:31:18;;;;;;;;;44.00;37.50;;;;;;;;5090912;27;45396;-73
2023/03/03 11:33:55;;;;;;;;;36.75;35.00;;;;;;;;5045691;28;45415;-74
2023/03/03 11:36:24;;;;;;;;;49.00;40.00;;;;;;;;5034951;28;45524;-73
2023/03/03 11:38:55;;;;;;;;;42.50;36.25;;;;;;;;5033784;28;45438;-73
2023/03/03 11:41:32;;;;;;;;;42.50;36.75;;;;;;;;5042441;28;45378;-73
2023/03/03 11:44:02;;;;;;;;;43.00;36.75;;;;;;;;5037397;28;45647;-73
2023/03/03 11:46:35;;;;;;;;;41.75;36.75;;;;;;;;5048704;28;45749;-73
2023/03/03 11:49:10;;;;;;;;;45.00;38.25;;;;;;;;5038780;28;45460;-73
2023/03/03 11:51:43;;;;;;;;;34.00;33.00;;;;;;;;5040141;28;45448;-73
2023/03/03 11:54:28;;;;;;;;;39.50;33.00;;;;;;;;5048526;28;45639;-72
2023/03/03 11:56:58;;;;;;;;;43.50;36.25;;;;;;;;5020749;28;45450;-73
2023/03/03 11:59:31;;;;;;;;;42.50;35.25;;;;;;;;5041259;28;45389;-74
2023/03/03 12:02:00;;;;;;;;;35.50;32.00;;;;;;;;5047135;28;45447;-74
2023/03/03 12:04:30;;;;;;;;;44.00;33.50;;;;;;;;5034655;28;45395;-75
2023/03/03 12:07:21;;;;;;;;;30.50;28.00;;;;;;;;5045102;28;47249;-74
2023/03/03 12:10:13;;;;;;;;;35.00;32.00;;;;;;;;5070636;27;45591;-74
2023/03/03 12:12:43;;;;;;;;;38.25;32.25;;;;;;;;5061434;27;45326;-75
2023/03/03 12:15:08;;;;;;;;;36.00;30.00;;;;;;;;5086429;27;45444;-74
2023/03/03 12:17:34;;;;;;;;;36.00;31.75;;;;;;;;5084637;27;45748;-74
2023/03/03 12:20:08;;;;;;;;;29.75;24.25;;;;;;;;5079014;27;45352;-74
2023/03/03 12:22:36;;;;;;;;;36.25;30.00;;;;;;;;5061180;27;45378;-73
2023/03/03 12:25:01;;;;;;;;;29.75;28.50;;;;;;;;5085550;27;45400;-73
2023/03/03 12:27:26;;;;;;;;;23.25;22.75;;;;;;;;5084436;27;45374;-73
2023/03/03 12:30:12;;;;;;;;;25.00;23.25;;;;;;;;5079585;27;45382;-73
2023/03/03 12:32:46;;;;;;;;;28.75;26.75;;;;;;;;5064404;27;45445;-73
2023/03/03 12:35:37;;;;;;;;;30.25;26.00;;;;;;;;5089026;27;45470;-73
2023/03/03 12:38:21;;;;;;;;;25.75;25.00;;;;;;;;5050615;28;46297;-73
2023/03/03 12:40:55;;;;;;;;;31.00;23.75;;;;;;;;5039559;28;45453;-74
2023/03/03 12:43:23;;;;;;;;;26.25;22.00;;;;;;;;5044878;28;45445;-74
2023/03/03 12:45:48;;;;;;;;;24.25;21.50;;;;;;;;5048804;28;45404;-74
2023/03/03 12:48:16;;;;;;;;;28.25;22.25;;;;;;;;5021528;28;48775;-74
2023/03/03 12:50:50;;;;;;;;;19.00;18.75;;;;;;;;5049902;28;45594;-74
2023/03/03 12:53:38;;;;;;;;;24.00;21.50;;;;;;;;5027382;28;45699;-73
2023/03/03 12:56:03;;;;;;;;;32.75;23.75;;;;;;;;4975450;28;45418;-74
2023/03/03 12:58:55;;;;;;;;;25.00;20.25;;;;;;;;4974637;28;46050;-74
2023/03/03 13:01:27;;;;;;;;;23.50;20.50;;;;;;;;4972003;28;45451;-72
2023/03/03 13:04:10;;;;;;;;;22.00;22.00;;;;;;;;4974519;28;45468;-72
2023/03/03 13:06:38;;;;;;;;;26.00;22.25;;;;;;;;4958901;28;45422;-72
2023/03/03 13:09:22;;;;;;;;;25.00;24.00;;;;;;;;4974364;28;45591;-72
2023/03/03 13:11:49;;;;;;;;;14.50;12.50;;;;;;;;4975171;28;45517;-72
2023/03/03 13:14:27;;;;;;;;;23.25;23.00;;;;;;;;4984650;28;45407;-73
2023/03/03 13:17:12;;;;;;;;;21.75;20.75;;;;;;;;5028450;28;45477;-74
2023/03/03 13:19:41;;;;;;;;;24.50;24.00;;;;;;;;5026538;28;46331;-74
2023/03/03 13:22:12;;;;;;;;;24.00;22.00;;;;;;;;5018276;28;45416;-74
2023/03/03 13:24:56;;;;;;;;;27.00;25.00;;;;;;;;5001845;28;45480;-74
2023/03/03 13:27:24;;;;;;;;;31.50;28.50;;;;;;;;5024208;28;45402;-74
2023/03/03 13:30:00;;;;;;;;;29.75;26.25;;;;;;;;5027900;28;45696;-74
2023/03/03 13:32:37;;;;;;;;;28.50;27.50;;;;;;;;5031065;27;45597;-74
2023/03/03 13:35:07;;;;;;;;;24.00;22.00;;;;;;;;5089256;27;45416;-75
2023/03/03 13:37:44;;;;;;;;;25.25;24.00;;;;;;;;5088804;27;45458;-75
2023/03/03 13:40:12;;;;;;;;;25.50;24.00;;;;;;;;5079662;27;45270;-75
2023/03/03 13:42:49;;;;;;;;;22.50;21.25;;;;;;;;5092432;27;45320;-74
2023/03/03 13:45:30;;;;;;;;;23.75;23.75;;;;;;;;5076021;28;45522;-76
2023/03/03 13:48:14;;;;;;;;;28.50;23.75;;;;;;;;5091472;27;45451;-76
2023/03/03 13:50:57;;;;;;;;;23.00;20.50;;;;;;;;5064933;27;45455;-74
2023/03/03 13:53:41;;;;;;;;;17.00;15.75;;;;;;;;5086548;27;45514;-75
2023/03/03 13:56:12;;;;;;;;;20.00;18.00;;;;;;;;5092008;27;45478;-74
2023/03/03 13:58:59;;;;;;;;;21.50;19.75;;;;;;;;5064053;27;45504;-75
2023/03/03 14:01:44;;;;;;;;;21.25;21.25;;;;;;;;5086056;27;45410;-74
2023/03/03 14:04:13;;;;;;;;;24.25;21.75;;;;;;;;5093643;27;45398;-74
2023/03/03 14:06:40;;;;;;;;;33.50;27.00;;;;;;;;5078046;27;45521;-74
2023/03/03 14:09:28;;;;;;;;;30.25;27.75;;;;;;;;5084465;27;45477;-74
2023/03/03 14:12:01;;;;;;;;;23.75;21.50;;;;;;;;5081277;27;45401;-73
2023/03/03 14:14:32;;;;;;;;;26.25;25.00;;;;;;;;5073876;27;45448;-74
2023/03/03 14:17:02;;;;;;;;;27.75;25.25;;;;;;;;5083343;27;45465;-74
2023/03/03 14:19:31;;;;;;;;;25.50;24.25;;;;;;;;5086015;27;45392;-73
2023/03/03 14:22:04;;;;;;;;;26.00;22.75;;;;;;;;5091555;27;46298;-72
2023/03/03 14:24:29;;;;;;;;;22.50;20.00;;;;;;;;5079836;27;45535;-73
2023/03/03 14:26:56;;;;;;;;;31.75;26.50;;;;;;;;5090035;27;45361;-74
2023/03/03 14:29:27;;;;;;;;;27.25;26.75;;;;;;;;5087427;27;45374;-72